sensor_id;sensor_type;location;lat;lon;timestamp;pressure;altitude;pressure_sealevel;temperature;humidity
63808;BME280;49961;43.970;22.868;2024-03-23T00:54:03;101511.19;;;6.42;100.00
63808;BME280;49961;43.970;22.868;2024-03-23T00:55:03;101523.06;;;6.49;100.00
63808;BME280;49961;43.970;22.868;2024-03-23T00:56:04;101521.41;;;6.41;100.00
63808;BME280;49961;43.970;22.868;2024-03-23T00:57:05;101434.91;;;5.88;100.00
63808;BME280;49961;43.970;22.868;2024-03-23T00:58:05;101516.22;;;6.33;100.00
63808;BME280;49961;43.970;22.868;2024-03-23T00:59:06;101445.41;;;5.79;100.00
63808;BME280;49961;43.970;22.868;2024-03-23T01:00:06;101458.94;;;5.95;100.00
63808;BME280;49961;43.970;22.868;2024-03-23T01:01:10;101525.31;;;6.37;100.00
63808;BME280;49961;43.970;22.868;2024-03-23T01:02:10;101521.75;;;6.36;100.00
63808;BME280;49961;43.970;22.868;2024-03-23T01:03:11;101422.97;;;5.74;100.00
63808;BME280;49961;43.970;22.868;2024-03-23T01:04:11;101528.88;;;6.37;100.00
63808;BME280;49961;43.970;22.868;2024-03-23T01:05:12;101471.19;;;6.04;100.00
63808;BME280;49961;43.970;22.868;2024-03-23T01:06:12;101451.44;;;5.92;100.00
63808;BME280;49961;43.970;22.868;2024-03-23T01:07:13;101464.50;;;6.05;100.00
63808;BME280;49961;43.970;22.868;2024-03-23T01:08:14;101354.19;;;5.27;100.00
63808;BME280;49961;43.970;22.868;2024-03-23T01:09:14;101515.84;;;6.31;100.00
63808;BME280;49961;43.970;22.868;2024-03-23T01:10:15;101527.25;;;6.33;100.00
63808;BME280;49961;43.970;22.868;2024-03-23T01:11:15;101466.34;;;5.87;100.00
63808;BME280;49961;43.970;22.868;2024-03-23T01:12:16;101525.19;;;6.19;100.00
63808;BME280;49961;43.970;22.868;2024-03-23T01:13:16;101442.16;;;5.67;100.00
63808;BME280;49961;43.970;22.868;2024-03-23T01:14:21;101454.38;;;5.73;100.00
63808;BME280;49961;43.970;22.868;2024-03-23T01:15:21;101512.50;;;6.08;100.00
63808;BME280;49961;43.970;22.868;2024-03-23T01:16:22;101442.44;;;5.55;100.00
63808;BME280;49961;43.970;22.868;2024-03-23T01:17:22;101431.81;;;5.53;100.00
63808;BME280;49961;43.970;22.868;2024-03-23T01:18:23;101442.41;;;5.51;100.00
63808;BME280;49961;43.970;22.868;2024-03-23T01:19:26;101442.16;;;5.67;100.00
63808;BME280;49961;43.970;22.868;2024-03-23T01:20:27;101505.03;;;6.08;100.00
63808;BME280;49961;43.970;22.868;2024-03-23T01:21:27;101473.41;;;5.88;100.00
63808;BME280;49961;43.970;22.868;2024-03-23T01:22:28;101507.47;;;6.17;100.00
63808;BME280;49961;43.970;22.868;2024-03-23T01:23:28;101504.31;;;6.15;100.00
63808;BME280;49961;43.970;22.868;2024-03-23T01:24:29;101505.78;;;6.05;100.00
63808;BME280;49961;43.970;22.868;2024-03-23T01:25:29;101508.97;;;6.07;100.00
63808;BME280;49961;43.970;22.868;2024-03-23T01:26:30;101509.81;;;6.15;100.00
63808;BME280;49961;43.970;22.868;2024-03-23T01:27:30;101435.09;;;5.69;100.00
63808;BME280;49961;43.970;22.868;2024-03-23T01:28:31;101446.09;;;5.69;100.00
63808;BME280;49961;43.970;22.868;2024-03-23T01:29:31;101514.16;;;6.19;100.00
63808;BME280;49961;43.970;22.868;2024-03-23T01:30:34;101421.69;;;5.61;100.00
63808;BME280;49961;43.970;22.868;2024-03-23T01:31:35;101515.38;;;6.22;100.00
63808;BME280;49961;43.970;22.868;2024-03-23T01:32:36;101516.53;;;6.21;100.00
63808;BME280;49961;43.970;22.868;2024-03-23T01:33:36;101514.56;;;6.21;100.00
63808;BME280;49961;43.970;22.868;2024-03-23T01:34:37;101514.56;;;6.21;100.00
63808;BME280;49961;43.970;22.868;2024-03-23T01:35:38;101416.16;;;5.57;100.00
63808;BME280;49961;43.970;22.868;2024-03-23T01:36:38;101513.38;;;6.19;100.00
63808;BME280;49961;43.970;22.868;2024-03-23T01:37:39;101452.81;;;5.75;100.00
63808;BME280;49961;43.970;22.868;2024-03-23T01:38:39;101499.44;;;5.98;100.00
63808;BME280;49961;43.970;22.868;2024-03-23T01:39:40;101412.94;;;5.52;100.00
63808;BME280;49961;43.970;22.868;2024-03-23T01:40:40;101506.25;;;6.11;100.00
63808;BME280;49961;43.970;22.868;2024-03-23T01:41:41;101510.94;;;6.10;100.00
63808;BME280;49961;43.970;22.868;2024-03-23T01:42:54;101492.41;;;6.04;100.00
63808;BME280;49961;43.970;22.868;2024-03-23T01:43:55;101405.88;;;5.51;100.00
63808;BME280;49961;43.970;22.868;2024-03-23T01:44:56;101486.91;;;6.04;100.00
63808;BME280;49961;43.970;22.868;2024-03-23T01:45:57;101518.84;;;6.15;100.00
63808;BME280;49961;43.970;22.868;2024-03-23T01:46:57;101439.38;;;5.63;100.00
63808;BME280;49961;43.970;22.868;2024-03-23T01:47:58;101506.66;;;6.16;100.00
63808;BME280;49961;43.970;22.868;2024-03-23T01:48:59;101353.75;;;5.18;100.00
63808;BME280;49961;43.970;22.868;2024-03-23T01:50:01;101479.91;;;6.10;100.00
63808;BME280;49961;43.970;22.868;2024-03-23T01:51:01;101453.38;;;5.88;100.00
63808;BME280;49961;43.970;22.868;2024-03-23T01:52:02;101371.94;;;5.33;100.00
63808;BME280;49961;43.970;22.868;2024-03-23T01:53:04;101409.50;;;5.62;100.00
63808;BME280;49961;43.970;22.868;2024-03-23T01:54:07;101506.31;;;6.21;100.00
63808;BME280;49961;43.970;22.868;2024-03-23T01:55:08;101362.88;;;5.29;100.00
63808;BME280;49961;43.970;22.868;2024-03-23T01:56:08;101499.56;;;6.12;100.00
63808;BME280;49961;43.970;22.868;2024-03-23T01:57:10;101506.25;;;6.14;100.00
63808;BME280;49961;43.970;22.868;2024-03-23T01:58:10;101341.56;;;5.15;100.00
63808;BME280;49961;43.970;22.868;2024-03-23T01:59:11;101454.50;;;5.80;100.00
63808;BME280;49961;43.970;22.868;2024-03-23T02:00:12;101512.13;;;6.13;100.00
63808;BME280;49961;43.970;22.868;2024-03-23T02:01:12;101400.69;;;5.42;100.00
63808;BME280;49961;43.970;22.868;2024-03-23T02:02:13;101508.63;;;6.12;100.00
63808;BME280;49961;43.970;22.868;2024-03-23T02:04:24;101454.81;;;5.75;100.00
63808;BME280;49961;43.970;22.868;2024-03-23T02:05:25;101484.06;;;5.90;100.00
63808;BME280;49961;43.970;22.868;2024-03-23T02:06:25;101508.97;;;6.07;100.00
63808;BME280;49961;43.970;22.868;2024-03-23T02:07:26;101347.72;;;5.02;100.00
63808;BME280;49961;43.970;22.868;2024-03-23T02:08:27;101481.31;;;5.90;100.00
63808;BME280;49961;43.970;22.868;2024-03-23T02:09:28;101458.69;;;5.70;100.00
63808;BME280;49961;43.970;22.868;2024-03-23T02:10:28;101382.81;;;5.22;100.00
63808;BME280;49961;43.970;22.868;2024-03-23T02:11:29;101491.06;;;5.84;100.00
63808;BME280;49961;43.970;22.868;2024-03-23T02:12:29;101508.88;;;5.97;100.00
63808;BME280;49961;43.970;22.868;2024-03-23T02:13:30;101441.53;;;5.40;100.00
63808;BME280;49961;43.970;22.868;2024-03-23T02:14:32;101496.56;;;5.84;100.00
63808;BME280;49961;43.970;22.868;2024-03-23T02:15:32;101429.25;;;5.34;100.00
63808;BME280;49961;43.970;22.868;2024-03-23T02:16:34;101492.00;;;5.62;100.00
63808;BME280;49961;43.970;22.868;2024-03-23T02:17:35;101507.53;;;5.80;100.00
63808;BME280;49961;43.970;22.868;2024-03-23T02:18:36;101445.34;;;5.32;100.00
63808;BME280;49961;43.970;22.868;2024-03-23T02:19:36;101435.03;;;5.22;100.00
63808;BME280;49961;43.970;22.868;2024-03-23T02:20:37;101506.16;;;5.64;100.00
63808;BME280;49961;43.970;22.868;2024-03-23T02:21:38;101506.53;;;5.62;100.00
63808;BME280;49961;43.970;22.868;2024-03-23T02:22:38;101499.06;;;5.63;100.00
63808;BME280;49961;43.970;22.868;2024-03-23T02:23:39;101500.66;;;5.64;100.00
63808;BME280;49961;43.970;22.868;2024-03-23T02:24:39;101439.03;;;5.28;100.00
63808;BME280;49961;43.970;22.868;2024-03-23T02:25:40;101526.19;;;5.64;100.00
63808;BME280;49961;43.970;22.868;2024-03-23T02:26:41;101425.56;;;5.16;100.00
63808;BME280;49961;43.970;22.868;2024-03-23T02:27:41;101429.53;;;5.22;100.00
63808;BME280;49961;43.970;22.868;2024-03-23T02:28:42;101443.44;;;5.36;100.00
63808;BME280;49961;43.970;22.868;2024-03-23T02:29:42;101500.34;;;5.72;100.00
63808;BME280;49961;43.970;22.868;2024-03-23T02:30:43;101506.25;;;5.74;100.00
63808;BME280;49961;43.970;22.868;2024-03-23T02:31:43;101443.84;;;5.38;100.00
63808;BME280;49961;43.970;22.868;2024-03-23T02:32:44;101476.63;;;5.57;100.00
63808;BME280;49961;43.970;22.868;2024-03-23T02:33:44;101432.69;;;5.24;100.00
63808;BME280;49961;43.970;22.868;2024-03-23T02:34:45;101204.06;;;3.85;100.00
63808;BME280;49961;43.970;22.868;2024-03-23T02:35:46;101496.44;;;5.73;100.00
63808;BME280;49961;43.970;22.868;2024-03-23T02:36:47;101423.72;;;5.27;100.00
63808;BME280;49961;43.970;22.868;2024-03-23T02:37:47;101417.31;;;5.16;100.00
63808;BME280;49961;43.970;22.868;2024-03-23T02:38:51;101513.69;;;5.70;100.00
63808;BME280;49961;43.970;22.868;2024-03-23T02:39:51;101437.94;;;5.36;100.00
63808;BME280;49961;43.970;22.868;2024-03-23T02:40:52;101477.41;;;5.58;100.00
63808;BME280;49961;43.970;22.868;2024-03-23T02:41:52;101361.50;;;4.72;100.00
63808;BME280;49961;43.970;22.868;2024-03-23T02:42:53;101498.00;;;5.74;100.00
63808;BME280;49961;43.970;22.868;2024-03-23T02:43:53;101462.13;;;5.60;100.00
63808;BME280;49961;43.970;22.868;2024-03-23T02:44:54;101491.75;;;5.74;100.00
63808;BME280;49961;43.970;22.868;2024-03-23T02:45:55;101497.66;;;5.79;100.00
63808;BME280;49961;43.970;22.868;2024-03-23T02:46:55;101367.59;;;4.92;100.00
63808;BME280;49961;43.970;22.868;2024-03-23T02:47:56;101490.66;;;5.82;100.00
63808;BME280;49961;43.970;22.868;2024-03-23T02:48:56;101490.28;;;5.83;100.00
63808;BME280;49961;43.970;22.868;2024-03-23T02:49:57;101486.78;;;5.86;100.00
63808;BME280;49961;43.970;22.868;2024-03-23T02:50:58;101382.44;;;5.20;100.00
63808;BME280;49961;43.970;22.868;2024-03-23T02:51:58;101357.22;;;5.11;100.00
63808;BME280;49961;43.970;22.868;2024-03-23T02:52:59;101427.88;;;5.54;100.00
63808;BME280;49961;43.970;22.868;2024-03-23T02:53:59;101402.97;;;5.37;100.00
63808;BME280;49961;43.970;22.868;2024-03-23T02:55:00;101396.34;;;5.38;100.00
63808;BME280;49961;43.970;22.868;2024-03-23T02:56:02;101485.28;;;5.96;100.00
63808;BME280;49961;43.970;22.868;2024-03-23T02:57:03;101491.59;;;6.00;100.00
63808;BME280;49961;43.970;22.868;2024-03-23T02:58:04;101434.72;;;5.71;100.00
63808;BME280;49961;43.970;22.868;2024-03-23T02:59:05;101485.69;;;6.01;100.00
63808;BME280;49961;43.970;22.868;2024-03-23T03:00:06;101484.13;;;6.00;100.00
63808;BME280;49961;43.970;22.868;2024-03-23T03:01:07;101364.66;;;5.11;100.00
63808;BME280;49961;43.970;22.868;2024-03-23T03:02:08;101465.16;;;5.85;100.00
63808;BME280;49961;43.970;22.868;2024-03-23T03:03:08;101446.19;;;5.76;100.00
63808;BME280;49961;43.970;22.868;2024-03-23T03:04:09;101483.63;;;5.88;100.00
63808;BME280;49961;43.970;22.868;2024-03-23T03:05:09;101474.97;;;5.86;100.00
63808;BME280;49961;43.970;22.868;2024-03-23T03:06:11;101444.91;;;5.67;100.00
63808;BME280;49961;43.970;22.868;2024-03-23T03:07:11;101439.31;;;5.56;100.00
63808;BME280;49961;43.970;22.868;2024-03-23T03:08:12;101478.47;;;5.83;100.00
63808;BME280;49961;43.970;22.868;2024-03-23T03:09:12;101353.19;;;5.02;100.00
63808;BME280;49961;43.970;22.868;2024-03-23T03:10:13;101168.41;;;3.85;100.00
63808;BME280;49961;43.970;22.868;2024-03-23T03:11:13;101472.09;;;5.75;100.00
63808;BME280;49961;43.970;22.868;2024-03-23T03:12:14;101216.13;;;4.10;100.00
63808;BME280;49961;43.970;22.868;2024-03-23T03:13:14;101470.84;;;5.69;100.00
63808;BME280;49961;43.970;22.868;2024-03-23T03:14:15;101485.75;;;5.65;100.00
63808;BME280;49961;43.970;22.868;2024-03-23T03:15:15;101458.47;;;5.49;100.00
63808;BME280;49961;43.970;22.868;2024-03-23T03:16:16;101402.69;;;5.05;100.00
63808;BME280;49961;43.970;22.868;2024-03-23T03:17:16;101450.47;;;5.34;100.00
63808;BME280;49961;43.970;22.868;2024-03-23T03:18:17;101475.78;;;5.50;100.00
63808;BME280;49961;43.970;22.868;2024-03-23T03:19:17;101389.94;;;4.90;100.00
63808;BME280;49961;43.970;22.868;2024-03-23T03:20:18;101255.31;;;4.14;100.00
63808;BME280;49961;43.970;22.868;2024-03-23T03:21:18;101476.19;;;5.52;100.00
63808;BME280;49961;43.970;22.868;2024-03-23T03:22:19;101477.69;;;5.46;100.00
63808;BME280;49961;43.970;22.868;2024-03-23T03:23:20;101391.88;;;4.86;100.00
63808;BME280;49961;43.970;22.868;2024-03-23T03:24:21;101483.97;;;5.43;100.00
63808;BME280;49961;43.970;22.868;2024-03-23T03:25:21;101478.88;;;5.45;100.00
63808;BME280;49961;43.970;22.868;2024-03-23T03:26:22;101475.72;;;5.43;100.00
63808;BME280;49961;43.970;22.868;2024-03-23T03:27:23;101481.16;;;5.39;100.00
63808;BME280;49961;43.970;22.868;2024-03-23T03:28:24;101478.75;;;5.34;100.00
63808;BME280;49961;43.970;22.868;2024-03-23T03:29:26;101475.56;;;5.29;100.00
63808;BME280;49961;43.970;22.868;2024-03-23T03:30:34;101339.97;;;4.45;100.00
63808;BME280;49961;43.970;22.868;2024-03-23T03:31:34;101435.00;;;4.86;100.00
63808;BME280;49961;43.970;22.868;2024-03-23T03:32:35;101470.03;;;5.25;100.00
63808;BME280;49961;43.970;22.868;2024-03-23T03:33:35;101477.47;;;5.25;100.00
63808;BME280;49961;43.970;22.868;2024-03-23T03:34:36;101471.63;;;5.30;100.00
63808;BME280;49961;43.970;22.868;2024-03-23T03:35:36;101476.78;;;5.35;100.00
63808;BME280;49961;43.970;22.868;2024-03-23T03:36:38;101425.50;;;5.09;100.00
63808;BME280;49961;43.970;22.868;2024-03-23T03:37:38;101345.19;;;4.53;100.00
63808;BME280;49961;43.970;22.868;2024-03-23T03:38:39;101468.91;;;5.33;100.00
63808;BME280;49961;43.970;22.868;2024-03-23T03:39:39;101387.88;;;4.80;100.00
63808;BME280;49961;43.970;22.868;2024-03-23T03:40:41;101319.50;;;4.35;100.00
63808;BME280;49961;43.970;22.868;2024-03-23T03:41:42;101427.69;;;4.97;100.00
63808;BME280;49961;43.970;22.868;2024-03-23T03:42:42;101477.09;;;5.26;100.00
63808;BME280;49961;43.970;22.868;2024-03-23T03:43:43;101475.53;;;5.25;100.00
63808;BME280;49961;43.970;22.868;2024-03-23T03:44:43;101436.84;;;5.08;100.00
63808;BME280;49961;43.970;22.868;2024-03-23T03:45:51;101428.94;;;5.03;100.00
63808;BME280;49961;43.970;22.868;2024-03-23T03:46:52;101379.94;;;4.72;100.00
63808;BME280;49961;43.970;22.868;2024-03-23T03:47:53;101318.59;;;4.28;100.00
63808;BME280;49961;43.970;22.868;2024-03-23T03:48:54;101384.25;;;4.73;100.00
63808;BME280;49961;43.970;22.868;2024-03-23T03:49:54;101453.91;;;5.24;100.00
63808;BME280;49961;43.970;22.868;2024-03-23T03:50:55;101483.09;;;5.35;100.00
63808;BME280;49961;43.970;22.868;2024-03-23T03:51:56;101413.97;;;4.97;100.00
63808;BME280;49961;43.970;22.868;2024-03-23T03:52:56;101349.53;;;4.54;100.00
63808;BME280;49961;43.970;22.868;2024-03-23T03:53:57;101381.53;;;4.76;100.00
63808;BME280;49961;43.970;22.868;2024-03-23T03:55:01;101471.69;;;5.37;100.00
63808;BME280;49961;43.970;22.868;2024-03-23T03:56:03;101442.34;;;5.08;100.00
63808;BME280;49961;43.970;22.868;2024-03-23T03:57:03;101468.41;;;5.24;100.00
63808;BME280;49961;43.970;22.868;2024-03-23T03:58:04;101436.75;;;5.01;100.00
63808;BME280;49961;43.970;22.868;2024-03-23T03:59:07;101450.97;;;5.06;100.00
63808;BME280;49961;43.970;22.868;2024-03-23T04:00:08;101466.78;;;5.16;100.00
63808;BME280;49961;43.970;22.868;2024-03-23T04:01:11;101400.69;;;4.69;100.00
63808;BME280;49961;43.970;22.868;2024-03-23T04:02:11;101416.88;;;4.78;100.00
63808;BME280;49961;43.970;22.868;2024-03-23T04:03:12;101474.53;;;5.11;100.00
63808;BME280;49961;43.970;22.868;2024-03-23T04:04:12;101475.34;;;5.11;100.00
63808;BME280;49961;43.970;22.868;2024-03-23T04:05:14;101474.53;;;5.11;100.00
63808;BME280;49961;43.970;22.868;2024-03-23T04:06:20;101474.97;;;5.13;100.00
63808;BME280;49961;43.970;22.868;2024-03-23T04:07:21;101372.97;;;4.48;100.00
63808;BME280;49961;43.970;22.868;2024-03-23T04:08:23;101367.84;;;4.47;100.00
63808;BME280;49961;43.970;22.868;2024-03-23T04:09:24;101474.25;;;5.19;100.00
63808;BME280;49961;43.970;22.868;2024-03-23T04:10:25;101470.66;;;5.12;100.00
63808;BME280;49961;43.970;22.868;2024-03-23T04:11:26;101475.06;;;5.20;100.00
63808;BME280;49961;43.970;22.868;2024-03-23T04:12:27;101427.19;;;4.88;100.00
63808;BME280;49961;43.970;22.868;2024-03-23T04:13:27;101472.63;;;5.15;100.00
63808;BME280;49961;43.970;22.868;2024-03-23T04:14:28;101479.38;;;5.21;100.00
63808;BME280;49961;43.970;22.868;2024-03-23T04:15:28;101492.34;;;5.20;100.00
63808;BME280;49961;43.970;22.868;2024-03-23T04:16:33;101493.13;;;5.21;100.00
63808;BME280;49961;43.970;22.868;2024-03-23T04:17:34;101488.78;;;5.20;100.00
63808;BME280;49961;43.970;22.868;2024-03-23T04:18:35;101323.13;;;4.13;100.00
63808;BME280;49961;43.970;22.868;2024-03-23T04:19:36;101366.59;;;4.41;100.00
63808;BME280;49961;43.970;22.868;2024-03-23T04:20:36;101489.94;;;5.15;100.00
63808;BME280;49961;43.970;22.868;2024-03-23T04:21:37;101487.91;;;5.12;100.00
63808;BME280;49961;43.970;22.868;2024-03-23T04:22:38;101495.00;;;5.13;100.00
63808;BME280;49961;43.970;22.868;2024-03-23T04:23:38;101454.22;;;4.86;100.00
63808;BME280;49961;43.970;22.868;2024-03-23T04:24:39;101495.00;;;5.13;100.00
63808;BME280;49961;43.970;22.868;2024-03-23T04:25:39;101448.81;;;4.89;100.00
63808;BME280;49961;43.970;22.868;2024-03-23T04:26:41;101375.22;;;4.39;100.00
63808;BME280;49961;43.970;22.868;2024-03-23T04:27:42;101499.72;;;5.13;100.00
63808;BME280;49961;43.970;22.868;2024-03-23T04:28:42;101392.97;;;4.49;100.00
63808;BME280;49961;43.970;22.868;2024-03-23T04:29:47;101370.38;;;4.29;100.00
63808;BME280;49961;43.970;22.868;2024-03-23T04:30:48;101351.50;;;4.24;100.00
63808;BME280;49961;43.970;22.868;2024-03-23T04:31:49;101487.50;;;5.10;100.00
63808;BME280;49961;43.970;22.868;2024-03-23T04:32:49;101407.22;;;4.58;100.00
63808;BME280;49961;43.970;22.868;2024-03-23T04:33:50;101489.94;;;5.15;100.00
63808;BME280;49961;43.970;22.868;2024-03-23T04:34:50;101499.31;;;5.14;100.00
63808;BME280;49961;43.970;22.868;2024-03-23T04:35:51;101375.97;;;4.40;100.00
63808;BME280;49961;43.970;22.868;2024-03-23T04:36:51;101490.25;;;5.10;100.00
63808;BME280;49961;43.970;22.868;2024-03-23T04:37:52;101462.09;;;4.87;100.00
63808;BME280;49961;43.970;22.868;2024-03-23T04:38:53;101354.47;;;4.12;100.00
63808;BME280;49961;43.970;22.868;2024-03-23T04:39:53;101419.75;;;4.59;100.00
63808;BME280;49961;43.970;22.868;2024-03-23T04:40:55;101339.47;;;4.06;100.00
63808;BME280;49961;43.970;22.868;2024-03-23T04:41:56;101501.22;;;5.07;100.00
63808;BME280;49961;43.970;22.868;2024-03-23T04:42:57;101397.56;;;4.41;100.00
63808;BME280;49961;43.970;22.868;2024-03-23T04:43:57;101359.16;;;4.12;100.00
63808;BME280;49961;43.970;22.868;2024-03-23T04:44:58;101507.09;;;5.09;100.00
63808;BME280;49961;43.970;22.868;2024-03-23T04:45:58;101486.13;;;4.94;100.00
63808;BME280;49961;43.970;22.868;2024-03-23T04:47:00;101494.03;;;4.99;100.00
63808;BME280;49961;43.970;22.868;2024-03-23T04:48:00;101495.09;;;5.20;100.00
63808;BME280;49961;43.970;22.868;2024-03-23T04:49:01;101498.66;;;5.24;100.00
63808;BME280;49961;43.970;22.868;2024-03-23T04:50:05;101495.13;;;5.24;100.00
63808;BME280;49961;43.970;22.868;2024-03-23T04:51:05;101460.38;;;5.05;100.00
63808;BME280;49961;43.970;22.868;2024-03-23T04:52:06;101471.84;;;5.14;100.00
63808;BME280;49961;43.970;22.868;2024-03-23T04:53:07;101503.44;;;5.31;100.00
63808;BME280;49961;43.970;22.868;2024-03-23T04:54:08;101502.28;;;5.32;100.00
63808;BME280;49961;43.970;22.868;2024-03-23T04:55:08;101345.16;;;4.20;100.00
63808;BME280;49961;43.970;22.868;2024-03-23T04:56:09;101479.72;;;5.16;100.00
63808;BME280;49961;43.970;22.868;2024-03-23T04:57:10;101381.66;;;4.54;100.00
63808;BME280;49961;43.970;22.868;2024-03-23T04:58:10;101474.59;;;5.14;100.00
63808;BME280;49961;43.970;22.868;2024-03-23T04:59:11;101484.03;;;5.17;100.00
63808;BME280;49961;43.970;22.868;2024-03-23T05:00:12;101459.19;;;5.06;100.00
63808;BME280;49961;43.970;22.868;2024-03-23T05:01:17;101480.19;;;5.21;100.00
63808;BME280;49961;43.970;22.868;2024-03-23T05:02:17;101364.31;;;4.46;100.00
63808;BME280;49961;43.970;22.868;2024-03-23T05:03:18;101476.59;;;5.17;100.00
63808;BME280;49961;43.970;22.868;2024-03-23T05:04:19;101477.41;;;5.18;100.00
63808;BME280;49961;43.970;22.868;2024-03-23T05:05:20;101505.00;;;5.32;100.00
63808;BME280;49961;43.970;22.868;2024-03-23T05:06:20;101507.72;;;5.28;100.00
63808;BME280;49961;43.970;22.868;2024-03-23T05:07:21;101429.44;;;4.79;100.00
63808;BME280;49961;43.970;22.868;2024-03-23T05:08:21;101506.47;;;5.22;100.00
63808;BME280;49961;43.970;22.868;2024-03-23T05:09:22;101298.16;;;3.92;100.00
63808;BME280;49961;43.970;22.868;2024-03-23T05:10:22;101507.28;;;5.23;100.00
63808;BME280;49961;43.970;22.868;2024-03-23T05:11:23;101505.28;;;5.20;100.00
63808;BME280;49961;43.970;22.868;2024-03-23T05:12:23;101502.53;;;5.20;100.00
63808;BME280;49961;43.970;22.868;2024-03-23T05:13:24;101441.84;;;4.66;100.00
63808;BME280;49961;43.970;22.868;2024-03-23T05:14:24;101453.78;;;4.80;100.00
63808;BME280;49961;43.970;22.868;2024-03-23T05:15:25;101508.72;;;5.13;100.00
63808;BME280;49961;43.970;22.868;2024-03-23T05:16:26;101521.69;;;5.13;100.00
63808;BME280;49961;43.970;22.868;2024-03-23T05:17:27;101490.22;;;5.07;100.00
63808;BME280;49961;43.970;22.868;2024-03-23T05:18:27;101505.25;;;5.16;100.00
63808;BME280;49961;43.970;22.868;2024-03-23T05:19:28;101418.91;;;4.55;100.00
63808;BME280;49961;43.970;22.868;2024-03-23T05:20:29;101479.94;;;5.00;100.00
63808;BME280;49961;43.970;22.868;2024-03-23T05:21:29;101503.25;;;5.17;100.00
63808;BME280;49961;43.970;22.868;2024-03-23T05:22:30;101487.50;;;5.10;100.00
63808;BME280;49961;43.970;22.868;2024-03-23T05:23:31;101448.88;;;4.96;100.00
63808;BME280;49961;43.970;22.868;2024-03-23T05:24:31;101458.03;;;5.07;100.00
63808;BME280;49961;43.970;22.868;2024-03-23T05:25:32;101501.59;;;5.42;100.00
63808;BME280;49961;43.970;22.868;2024-03-23T05:26:32;101474.38;;;5.30;100.00
63808;BME280;49961;43.970;22.868;2024-03-23T05:27:34;101183.97;;;3.48;100.00
63808;BME280;49961;43.970;22.868;2024-03-23T05:28:34;101453.53;;;5.25;100.00
63808;BME280;49961;43.970;22.868;2024-03-23T05:29:35;101492.66;;;5.52;100.00
63808;BME280;49961;43.970;22.868;2024-03-23T05:30:35;101488.38;;;5.54;100.00
63808;BME280;49961;43.970;22.868;2024-03-23T05:31:36;101484.13;;;5.60;100.00
63808;BME280;49961;43.970;22.868;2024-03-23T05:32:36;101474.22;;;5.52;100.00
63808;BME280;49961;43.970;22.868;2024-03-23T05:33:40;101450.44;;;5.30;100.00
63808;BME280;49961;43.970;22.868;2024-03-23T05:34:41;101429.56;;;5.26;100.00
63808;BME280;49961;43.970;22.868;2024-03-23T05:35:41;101486.19;;;5.70;100.00
63808;BME280;49961;43.970;22.868;2024-03-23T05:36:42;101492.09;;;5.72;100.00
63808;BME280;49961;43.970;22.868;2024-03-23T05:37:43;101487.00;;;5.74;100.00
63808;BME280;49961;43.970;22.868;2024-03-23T05:38:44;101462.91;;;5.61;100.00
63808;BME280;49961;43.970;22.868;2024-03-23T05:39:45;101440.53;;;5.59;100.00
63808;BME280;49961;43.970;22.868;2024-03-23T05:40:56;101472.78;;;5.65;100.00
63808;BME280;49961;43.970;22.868;2024-03-23T05:41:57;101488.38;;;5.91;100.00
63808;BME280;49961;43.970;22.868;2024-03-23T05:42:57;101489.22;;;5.95;100.00
63808;BME280;49961;43.970;22.868;2024-03-23T05:43:58;101472.63;;;5.88;100.00
63808;BME280;49961;43.970;22.868;2024-03-23T05:44:58;101417.69;;;5.55;100.00
63808;BME280;49961;43.970;22.868;2024-03-23T05:46:00;101488.44;;;6.01;100.00
63808;BME280;49961;43.970;22.868;2024-03-23T05:47:01;101494.00;;;6.05;100.00
63808;BME280;49961;43.970;22.868;2024-03-23T05:48:02;101494.81;;;6.09;100.00
63808;BME280;49961;43.970;22.868;2024-03-23T05:49:02;101435.59;;;5.78;100.00
63808;BME280;49961;43.970;22.868;2024-03-23T05:50:04;101407.63;;;5.73;100.00
63808;BME280;49961;43.970;22.868;2024-03-23T05:51:05;101487.09;;;6.25;100.00
63808;BME280;49961;43.970;22.868;2024-03-23T05:52:05;101431.81;;;5.93;100.00
63808;BME280;49961;43.970;22.868;2024-03-23T05:53:06;101472.53;;;6.28;100.00
63808;BME280;49961;43.970;22.868;2024-03-23T05:54:06;101482.44;;;6.36;100.00
63808;BME280;49961;43.970;22.868;2024-03-23T05:55:07;101489.16;;;6.38;100.00
63808;BME280;49961;43.970;22.868;2024-03-23T05:56:08;101483.31;;;6.47;100.00
63808;BME280;49961;43.970;22.868;2024-03-23T05:57:09;101484.50;;;6.49;100.00
63808;BME280;49961;43.970;22.868;2024-03-23T05:58:10;101482.16;;;6.55;100.00
63808;BME280;49961;43.970;22.868;2024-03-23T05:59:11;101385.88;;;6.01;100.00
63808;BME280;49961;43.970;22.868;2024-03-23T06:00:12;101483.81;;;6.66;100.00
63808;BME280;49961;43.970;22.868;2024-03-23T06:01:18;101329.47;;;5.74;100.00
63808;BME280;49961;43.970;22.868;2024-03-23T06:02:19;101478.75;;;6.79;100.00
63808;BME280;49961;43.970;22.868;2024-03-23T06:03:19;101483.09;;;6.83;100.00
63808;BME280;49961;43.970;22.868;2024-03-23T06:04:21;101471.72;;;6.88;100.00
63808;BME280;49961;43.970;22.868;2024-03-23T06:05:23;101430.28;;;6.64;100.00
63808;BME280;49961;43.970;22.868;2024-03-23T06:06:24;101483.97;;;6.94;100.00
63808;BME280;49961;43.970;22.868;2024-03-23T06:07:24;101384.91;;;6.33;100.00
63808;BME280;49961;43.970;22.868;2024-03-23T06:08:25;101348.22;;;6.19;100.00
63808;BME280;49961;43.970;22.868;2024-03-23T06:09:25;101371.56;;;6.42;100.00